createdAt,value
2019-02-19T00:07:35.226Z,101400.17
2019-02-19T00:10:34.414Z,101401.47
2019-02-19T00:45:31.054Z,101415.52
2019-02-19T00:48:33.633Z,101419.87
2019-02-19T00:51:33.310Z,101425.47
2019-02-19T00:54:32.760Z,101419.79
2019-02-19T00:57:31.921Z,101427.72
2019-02-19T01:06:44.277Z,101419.70
2019-02-19T01:09:34.686Z,101421.91
2019-02-19T01:12:34.050Z,101424.13
2019-02-19T01:15:33.212Z,101425.28
2019-02-19T01:18:32.570Z,101427.88
2019-02-19T01:21:32.155Z,101433.55
2019-02-19T01:24:31.443Z,101436.65
2019-02-19T01:27:33.844Z,101434.51
2019-02-19T01:42:32.946Z,101442.35
2019-02-19T01:45:34.177Z,101443.25
2019-02-19T01:48:12.035Z,101443.67
2019-02-19T01:50:41.327Z,101435.77
2019-02-19T01:53:10.573Z,101442.81
2019-02-19T01:55:39.840Z,101448.06
2019-02-19T01:58:09.080Z,101441.45
2019-02-19T02:00:38.452Z,101445.02
2019-02-19T02:03:07.750Z,101448.08
2019-02-19T02:05:37.080Z,101450.73
2019-02-19T02:08:06.329Z,101450.30
2019-02-19T02:10:35.647Z,101455.54
2019-02-19T02:13:04.880Z,101452.47
2019-02-19T02:15:42.286Z,101452.48
2019-02-19T02:18:05.288Z,101442.78
2019-02-19T02:20:34.596Z,101441.94
2019-02-19T02:23:03.860Z,101438.41
2019-02-19T02:25:33.156Z,101446.30
2019-02-19T02:28:02.391Z,101440.61
2019-02-19T02:30:31.660Z,101448.53
2019-02-19T02:33:00.939Z,101446.73
2019-02-19T02:35:30.241Z,101441.95
2019-02-19T02:37:59.589Z,101450.70
2019-02-19T02:40:28.995Z,101444.13
2019-02-19T02:42:58.290Z,101452.02
2019-02-19T02:45:27.578Z,101453.20
2019-02-19T02:47:56.851Z,101460.80
2019-02-19T02:50:26.135Z,101462.42
2019-02-19T02:52:55.397Z,101458.58
2019-02-19T02:55:24.657Z,101458.57
2019-02-19T02:57:53.949Z,101453.73
2019-02-19T03:00:23.378Z,101462.50
2019-02-19T03:02:52.622Z,101462.52
2019-02-19T03:05:21.860Z,101455.98
2019-02-19T03:07:54.489Z,101462.08
2019-02-19T03:10:23.821Z,101458.91
2019-02-19T03:12:53.091Z,101464.70
2019-02-19T03:15:22.354Z,101459.92
2019-02-19T03:17:51.652Z,101461.66
2019-02-19T03:20:20.943Z,101459.42
2019-02-19T03:22:50.213Z,101462.40
2019-02-19T03:25:19.463Z,101472.56
2019-02-19T03:27:48.769Z,101455.98
2019-02-19T03:30:18.168Z,101465.19
2019-02-19T03:32:47.506Z,101478.75
2019-02-19T03:35:16.749Z,101477.81
2019-02-19T03:37:46.033Z,101476.53
2019-02-19T03:40:15.332Z,101478.73
2019-02-19T03:42:44.575Z,101477.49
2019-02-19T03:45:13.831Z,101477.04
2019-02-19T03:47:43.086Z,101473.06
2019-02-19T03:50:12.325Z,101473.94
2019-02-19T03:52:41.778Z,101484.05
2019-02-19T03:55:11.038Z,101480.09
2019-02-19T03:57:40.463Z,101486.64
2019-02-19T04:00:09.921Z,101479.23
2019-02-19T04:02:39.164Z,101482.13
2019-02-19T04:05:08.566Z,101482.85
2019-02-19T04:07:37.819Z,101481.94
2019-02-19T04:10:08.119Z,101478.08
2019-02-19T04:12:37.395Z,101473.91
2019-02-19T04:15:07.791Z,101484.33
2019-02-19T04:17:37.086Z,101489.16
2019-02-19T04:20:06.985Z,101484.30
2019-02-19T04:22:36.306Z,101492.13
2019-02-19T04:25:05.673Z,101487.87
2019-02-19T04:27:35.003Z,101493.49
2019-02-19T04:30:04.909Z,101501.85
2019-02-19T04:32:34.147Z,101497.11
2019-02-19T04:35:03.480Z,101499.19
2019-02-19T04:37:32.717Z,101505.88
2019-02-19T04:40:02.036Z,101511.92
2019-02-19T04:42:31.277Z,101502.56
2019-02-19T04:45:00.583Z,101511.95
2019-02-19T04:47:29.838Z,101510.28
2019-02-19T04:49:59.141Z,101512.66
2019-02-19T04:52:28.414Z,101515.52
2019-02-19T04:54:57.670Z,101507.64
2019-02-19T04:57:26.942Z,101513.37
2019-02-19T04:59:56.218Z,101519.30
2019-02-19T05:02:25.525Z,101525.98
2019-02-19T05:04:54.849Z,101529.95
2019-02-19T05:07:24.146Z,101531.21
2019-02-19T05:09:53.404Z,101526.48
2019-02-19T05:12:22.701Z,101528.20
2019-02-19T05:14:51.973Z,101528.64
2019-02-19T05:17:21.486Z,101531.27
2019-02-19T05:19:50.768Z,101533.09
2019-02-19T05:22:20.129Z,101518.94
2019-02-19T05:24:49.434Z,101521.90
2019-02-19T05:27:18.736Z,101533.02
2019-02-19T05:29:48.053Z,101525.36
2019-02-19T05:32:17.355Z,101527.69
2019-02-19T05:34:46.624Z,101526.31
2019-02-19T05:37:15.933Z,101530.02
2019-02-19T05:39:45.227Z,101537.70
2019-02-19T05:42:14.523Z,101531.05
2019-02-19T05:44:43.840Z,101526.02
2019-02-19T05:47:13.125Z,101520.26
2019-02-19T05:49:43.805Z,101528.41
2019-02-19T05:52:13.082Z,101528.98
2019-02-19T05:54:42.299Z,101528.27
2019-02-19T05:57:11.566Z,101528.58
2019-02-19T05:59:40.917Z,101531.61
2019-02-19T06:02:10.227Z,101527.38
2019-02-19T06:04:39.475Z,101529.30
2019-02-19T06:07:08.752Z,101536.91
2019-02-19T06:09:38.011Z,101533.61
2019-02-19T06:12:07.267Z,101547.44
2019-02-19T06:14:36.492Z,101544.00
2019-02-19T06:17:05.738Z,101552.97
2019-02-19T06:19:35.021Z,101555.14
2019-02-19T06:22:04.289Z,101560.70
2019-02-19T06:24:33.492Z,101562.44
2019-02-19T06:27:02.782Z,101560.20
2019-02-19T06:29:32.059Z,101567.08
2019-02-19T06:32:01.324Z,101571.72
2019-02-19T06:34:30.621Z,101573.04
2019-02-19T06:36:59.903Z,101584.18
2019-02-19T06:39:29.173Z,101584.61
2019-02-19T06:41:58.422Z,101586.17
2019-02-19T06:44:27.686Z,101595.67
2019-02-19T06:46:56.901Z,101595.42
2019-02-19T06:49:26.270Z,101602.47
2019-02-19T06:51:55.634Z,101601.16
2019-02-19T06:54:24.908Z,101611.12
2019-02-19T06:56:54.135Z,101611.55
2019-02-19T06:59:23.400Z,101615.83
2019-02-19T07:02:11.567Z,101609.05
2019-02-19T07:04:46.319Z,101626.56
2019-02-19T07:07:15.548Z,101623.07
2019-02-19T07:09:44.798Z,101626.13
2019-02-19T07:12:14.047Z,101622.42
2019-02-19T07:14:43.332Z,101634.48
2019-02-19T07:17:15.758Z,101633.69
2019-02-19T07:19:43.587Z,101642.25
2019-02-19T07:22:12.845Z,101657.03
2019-02-19T07:24:42.095Z,101656.14
2019-02-19T07:27:11.337Z,101656.05
2019-02-19T07:29:40.587Z,101668.45
2019-02-19T07:32:09.813Z,101661.11
2019-02-19T07:34:40.953Z,101663.05
2019-02-19T07:37:10.091Z,101663.23
2019-02-19T07:39:39.381Z,101667.30
2019-02-19T07:42:08.734Z,101672.93
2019-02-19T07:44:37.985Z,101669.41
2019-02-19T07:47:07.209Z,101671.23
2019-02-19T07:49:36.480Z,101680.83
2019-02-19T07:52:05.718Z,101672.30
2019-02-19T07:54:34.971Z,101686.75
2019-02-19T07:57:04.297Z,101693.20
2019-02-19T07:59:33.572Z,101689.49
2019-02-19T08:02:02.795Z,101696.25
2019-02-19T08:04:32.028Z,101693.88
2019-02-19T08:07:01.294Z,101708.16
2019-02-19T08:09:30.499Z,101701.74
2019-02-19T08:11:59.759Z,101711.23
2019-02-19T08:14:28.991Z,101714.23
2019-02-19T08:16:58.240Z,101709.16
2019-02-19T08:19:27.505Z,101706.16
2019-02-19T08:21:56.781Z,101710.10
2019-02-19T08:24:26.042Z,101714.57
2019-02-19T08:26:55.275Z,101710.19
2019-02-19T08:29:24.587Z,101714.78
2019-02-19T08:31:53.861Z,101708.92
2019-02-19T08:34:23.078Z,101716.77
2019-02-19T08:36:52.372Z,101709.20
2019-02-19T08:39:21.640Z,101708.70
2019-02-19T08:41:50.886Z,101708.62
2019-02-19T08:44:20.120Z,101707.73
2019-02-19T08:46:49.396Z,101710.82
2019-02-19T08:49:18.630Z,101716.27
2019-02-19T08:51:55.873Z,101716.44
2019-02-19T08:54:18.886Z,101719.40
2019-02-19T08:56:48.144Z,101714.69
2019-02-19T08:59:17.416Z,101722.02
2019-02-19T09:01:46.646Z,101714.23
2019-02-19T09:04:15.916Z,101720.00
2019-02-19T09:06:45.175Z,101716.39
2019-02-19T09:09:14.434Z,101718.41
2019-02-19T09:11:43.748Z,101721.22
2019-02-19T09:14:13.037Z,101716.23
2019-02-19T09:16:42.292Z,101723.22
2019-02-19T09:19:11.598Z,101732.56
2019-02-19T09:21:40.878Z,101725.55
2019-02-19T09:24:10.126Z,101732.53
2019-02-19T09:26:39.401Z,101731.16
2019-02-19T09:29:08.653Z,101728.04
2019-02-19T09:31:37.894Z,101731.16
2019-02-19T09:34:07.257Z,101737.52
2019-02-19T09:36:36.522Z,101736.86
2019-02-19T09:39:06.485Z,101734.44
2019-02-19T09:41:35.874Z,101740.09
2019-02-19T09:44:05.126Z,101736.66
2019-02-19T09:46:34.422Z,101732.20
2019-02-19T09:49:03.700Z,101734.00
2019-02-19T09:51:32.958Z,101742.34
2019-02-19T09:54:02.235Z,101740.64
2019-02-19T09:56:31.543Z,101738.52
2019-02-19T09:59:00.837Z,101738.52
2019-02-19T10:01:30.098Z,101735.48
2019-02-19T10:03:59.329Z,101742.02
2019-02-19T10:06:28.566Z,101747.31
2019-02-19T10:08:57.809Z,101749.09
2019-02-19T10:11:27.105Z,101747.32
2019-02-19T10:13:56.362Z,101746.88
2019-02-19T10:16:25.602Z,101735.39
2019-02-19T10:18:54.944Z,101746.90
2019-02-19T10:21:24.359Z,101748.20
2019-02-19T10:23:53.639Z,101743.39
2019-02-19T10:26:22.991Z,101745.14
2019-02-19T10:28:52.245Z,101750.82
2019-02-19T10:31:21.532Z,101742.96
2019-02-19T10:33:50.789Z,101745.13
2019-02-19T10:36:20.180Z,101752.19
2019-02-19T10:38:49.443Z,101753.07
2019-02-19T10:41:18.704Z,101757.05
2019-02-19T10:43:47.943Z,101746.47
2019-02-19T10:46:17.243Z,101753.50
2019-02-19T10:48:46.641Z,101751.33
2019-02-19T10:51:15.907Z,101765.44
2019-02-19T10:53:45.144Z,101764.55
2019-02-19T10:56:14.436Z,101768.48
2019-02-19T10:58:43.727Z,101754.40
2019-02-19T11:01:13.011Z,101761.02
2019-02-19T11:03:42.282Z,101769.35
2019-02-19T11:06:11.574Z,101768.05
2019-02-19T11:08:40.896Z,101766.08
2019-02-19T11:11:10.174Z,101771.13
2019-02-19T11:13:39.410Z,101766.27
2019-02-19T11:16:08.767Z,101765.30
2019-02-19T11:18:38.038Z,101758.31
2019-02-19T11:21:07.358Z,101772.30
2019-02-19T11:23:36.619Z,101757.95
2019-02-19T11:26:05.839Z,101758.80
2019-02-19T11:28:35.116Z,101759.14
2019-02-19T11:31:04.351Z,101757.47
2019-02-19T11:33:33.637Z,101759.47
2019-02-19T11:36:02.928Z,101763.95
2019-02-19T11:38:32.207Z,101761.80
2019-02-19T11:41:01.471Z,101764.08
2019-02-19T11:43:30.718Z,101766.73
2019-02-19T11:46:00.016Z,101764.84
2019-02-19T11:48:36.811Z,101759.13
2019-02-19T11:51:00.251Z,101757.79
2019-02-19T11:53:29.556Z,101762.27
2019-02-19T11:55:58.883Z,101762.22
2019-02-19T11:58:28.177Z,101756.41
2019-02-19T12:00:57.447Z,101762.25
2019-02-19T12:03:26.790Z,101746.66
2019-02-19T12:05:56.065Z,101744.93
2019-02-19T12:08:25.329Z,101742.78
2019-02-19T12:10:54.588Z,101753.38
2019-02-19T12:13:23.862Z,101749.38
2019-02-19T12:15:54.305Z,101742.83
2019-02-19T12:18:23.585Z,101733.84
2019-02-19T12:20:52.868Z,101737.44
2019-02-19T12:23:22.127Z,101739.41
2019-02-19T12:25:51.362Z,101730.72
2019-02-19T12:28:20.612Z,101732.37
2019-02-19T12:30:49.910Z,101732.66
2019-02-19T12:33:19.124Z,101729.91
2019-02-19T12:35:48.407Z,101736.76
2019-02-19T12:38:17.805Z,101729.66
2019-02-19T12:40:47.071Z,101736.11
2019-02-19T12:43:16.448Z,101742.65
2019-02-19T12:45:45.786Z,101744.15
2019-02-19T12:48:15.115Z,101735.67
2019-02-19T12:50:44.393Z,101727.67
2019-02-19T12:53:13.674Z,101728.24
2019-02-19T12:55:43.752Z,101726.30
2019-02-19T12:58:13.011Z,101733.03
2019-02-19T13:00:42.286Z,101735.77
2019-02-19T13:03:11.560Z,101735.80
2019-02-19T13:05:40.835Z,101742.72
2019-02-19T13:08:10.086Z,101733.17
2019-02-19T13:10:39.347Z,101733.36
2019-02-19T13:13:08.675Z,101724.98
2019-02-19T13:15:37.974Z,101730.25
2019-02-19T13:18:07.247Z,101724.99
2019-02-19T13:20:36.530Z,101737.34
2019-02-19T13:23:05.820Z,101742.27
2019-02-19T13:25:35.071Z,101739.16
2019-02-19T13:28:04.363Z,101740.38
2019-02-19T13:30:33.636Z,101733.74
2019-02-19T13:33:02.948Z,101738.90
2019-02-19T13:35:32.238Z,101739.95
2019-02-19T13:38:01.482Z,101742.53
2019-02-19T13:40:30.732Z,101752.86
2019-02-19T13:42:59.987Z,101747.22
2019-02-19T13:45:29.254Z,101756.02
2019-02-19T13:48:05.710Z,101751.41
2019-02-19T13:50:29.600Z,101752.54
2019-02-19T13:53:23.883Z,101749.45
2019-02-19T13:55:55.626Z,101750.75
2019-02-19T13:58:24.934Z,101751.93
2019-02-19T14:00:54.360Z,101747.75
2019-02-19T14:03:23.676Z,101745.09
2019-02-19T14:05:52.921Z,101743.11
2019-02-19T14:08:22.265Z,101749.59
2019-02-19T14:10:51.521Z,101744.53
2019-02-19T14:13:21.036Z,101747.34
2019-02-19T14:16:06.622Z,101761.53
2019-02-19T14:18:50.840Z,101750.66
2019-02-19T14:21:39.033Z,101756.47
2019-02-19T14:24:26.263Z,101760.42
2019-02-19T14:27:14.463Z,101765.60
2019-02-19T14:30:17.838Z,101770.62
2019-02-19T14:33:20.569Z,101768.31
2019-02-19T14:36:14.307Z,101766.06
2019-02-19T14:39:20.862Z,101753.69
2019-02-19T14:42:03.198Z,101756.67
2019-02-19T14:44:50.206Z,101755.48
2019-02-19T14:47:46.062Z,101757.28
2019-02-19T14:50:40.360Z,101759.40
2019-02-19T14:53:29.389Z,101756.14
2019-02-19T14:56:38.345Z,101762.50
2019-02-19T14:59:16.535Z,101762.18
2019-02-19T15:02:07.635Z,101763.86
2019-02-19T15:04:59.821Z,101768.27
2019-02-19T15:07:50.250Z,101763.61
2019-02-19T15:10:47.829Z,101755.14
2019-02-19T15:13:36.053Z,101757.25
2019-02-19T15:16:15.736Z,101750.05
2019-02-19T15:19:02.743Z,101754.75
2019-02-19T15:21:44.365Z,101751.17
2019-02-19T15:24:32.622Z,101761.73
2019-02-19T15:27:23.653Z,101756.26
2019-02-19T15:30:21.295Z,101754.58
2019-02-19T15:33:15.741Z,101764.36
2019-02-19T15:36:02.915Z,101757.54
2019-02-19T15:39:09.727Z,101761.66
2019-02-19T15:42:03.993Z,101758.86
2019-02-19T15:45:01.313Z,101755.51
2019-02-19T15:47:54.362Z,101759.52
2019-02-19T15:50:41.098Z,101764.12
2019-02-19T15:53:41.454Z,101770.73
2019-02-19T15:56:23.765Z,101775.08
2019-02-19T15:59:02.068Z,101772.60
2019-02-19T16:01:53.404Z,101774.06
2019-02-19T16:04:29.167Z,101774.91
2019-02-19T16:07:09.549Z,101774.99
2019-02-19T16:09:47.375Z,101773.19
2019-02-19T16:12:35.601Z,101785.48
2019-02-19T16:15:26.415Z,101787.27
2019-02-19T16:18:14.670Z,101789.92
2019-02-19T16:21:02.989Z,101787.80
2019-02-19T16:24:03.228Z,101792.19
2019-02-19T16:26:50.206Z,101792.25
2019-02-19T16:29:39.301Z,101797.54
2019-02-19T16:32:30.558Z,101785.23
2019-02-19T16:35:18.895Z,101783.48
2019-02-19T16:38:10.210Z,101785.23
2019-02-19T16:41:04.493Z,101796.23
2019-02-19T16:43:49.199Z,101794.45
2019-02-19T16:46:37.466Z,101796.63
2019-02-19T16:49:31.672Z,101788.73
2019-02-19T16:52:08.007Z,101794.94
2019-02-19T16:58:17.725Z,101797.93
2019-02-19T17:01:08.241Z,101800.56
2019-02-19T17:03:54.319Z,101810.66
2019-02-19T17:06:35.654Z,101814.94
2019-02-19T17:09:27.977Z,101818.09
2019-02-19T17:12:18.640Z,101815.83
2019-02-19T17:15:09.856Z,101819.73
2019-02-19T17:18:07.280Z,101818.88
2019-02-19T17:20:54.612Z,101821.48
2019-02-19T17:23:55.248Z,101822.77
2019-02-19T17:26:46.660Z,101822.55
2019-02-19T17:29:33.771Z,101827.85
2019-02-19T17:32:22.951Z,101835.23
2019-02-19T17:35:18.673Z,101836.52
2019-02-19T17:38:14.632Z,101832.95
2019-02-19T17:40:47.860Z,101839.30
2019-02-19T17:43:23.319Z,101839.97
2019-02-19T17:46:23.709Z,101835.12
2019-02-19T17:49:20.783Z,101843.03
2019-02-19T17:52:13.956Z,101847.36
2019-02-19T17:55:13.498Z,101859.09
2019-02-19T17:58:04.546Z,101851.14
2019-02-19T18:00:46.729Z,101855.94
2019-02-19T18:03:34.993Z,101869.11
2019-02-19T18:06:32.186Z,101864.16
2019-02-19T18:09:20.404Z,101860.84
2019-02-19T18:12:11.832Z,101865.73
2019-02-19T18:14:59.001Z,101873.30
2019-02-19T18:17:37.371Z,101876.59
2019-02-19T18:20:10.402Z,101885.81
2019-02-19T18:22:39.881Z,101880.86
2019-02-19T18:25:09.318Z,101881.77
2019-02-19T18:27:38.730Z,101879.49
2019-02-19T18:30:08.419Z,101880.92
2019-02-19T18:32:37.782Z,101882.75
2019-02-19T18:35:07.642Z,101881.42
2019-02-19T18:37:37.062Z,101888.72
2019-02-19T18:40:06.510Z,101888.25
2019-02-19T18:42:35.820Z,101890.59
2019-02-19T18:45:05.485Z,101893.33
2019-02-19T18:47:34.782Z,101892.34
2019-02-19T18:50:04.433Z,101899.67
2019-02-19T18:52:33.810Z,101897.17
2019-02-19T18:55:03.384Z,101889.21
2019-02-19T18:57:32.727Z,101891.73
2019-02-19T19:00:02.158Z,101894.96
2019-02-19T19:02:31.461Z,101898.59
2019-02-19T19:05:00.808Z,101901.69
2019-02-19T19:07:30.123Z,101903.94
2019-02-19T19:09:59.459Z,101895.19
2019-02-19T19:12:28.809Z,101903.57
2019-02-19T19:14:58.281Z,101897.53
2019-02-19T19:17:27.605Z,101899.79
2019-02-19T19:19:57.040Z,101901.83
2019-02-19T19:22:26.391Z,101902.60
2019-02-19T19:24:56.392Z,101904.17
2019-02-19T19:27:25.765Z,101899.52
2019-02-19T19:30:00.875Z,101892.67
2019-02-19T19:32:30.193Z,101902.67
2019-02-19T19:34:59.575Z,101900.71
2019-02-19T19:37:29.899Z,101904.09
2019-02-19T19:39:59.283Z,101903.34
2019-02-19T19:42:28.676Z,101909.48
2019-02-19T19:44:58.078Z,101910.31
2019-02-19T19:47:27.564Z,101903.01
2019-02-19T19:49:56.933Z,101905.91
2019-02-19T19:52:26.306Z,101912.47
2019-02-19T19:54:55.852Z,101909.91
2019-02-19T19:57:25.365Z,101912.34
2019-02-19T19:59:54.761Z,101919.41
2019-02-19T20:02:24.233Z,101914.55
2019-02-19T20:04:53.567Z,101911.42
2019-02-19T20:07:22.995Z,101914.82
2019-02-19T20:09:52.302Z,101912.78
2019-02-19T20:12:21.797Z,101914.33
2019-02-19T20:14:51.159Z,101911.87
2019-02-19T20:17:20.718Z,101914.04
2019-02-19T20:19:50.108Z,101920.59
2019-02-19T20:22:19.607Z,101916.95
2019-02-19T20:24:48.994Z,101915.56
2019-02-19T20:27:18.390Z,101911.20
2019-02-19T20:29:47.740Z,101913.77
2019-02-19T20:32:17.227Z,101908.84
2019-02-19T20:34:46.605Z,101922.19
2019-02-19T20:37:16.061Z,101918.96
2019-02-19T20:39:45.339Z,101923.06
2019-02-19T20:42:14.699Z,101923.09
2019-02-19T20:45:31.879Z,101919.84
2019-02-19T20:56:31.598Z,101942.48
2019-02-19T21:09:10.395Z,101948.15
2019-02-19T21:11:39.713Z,101942.64
2019-02-19T21:14:09.150Z,101951.08
2019-02-19T21:16:38.541Z,101944.03
2019-02-19T21:19:08.059Z,101952.56
2019-02-19T21:21:44.721Z,101948.45
2019-02-19T21:24:08.567Z,101937.19
2019-02-19T21:26:38.020Z,101950.16
2019-02-19T21:29:07.337Z,101944.89
2019-02-19T21:31:36.735Z,101947.43
2019-02-19T21:34:06.086Z,101951.52
2019-02-19T21:36:35.522Z,101953.61
2019-02-19T21:39:06.483Z,101951.05
2019-02-19T21:41:35.851Z,101949.59
2019-02-19T21:44:05.257Z,101939.34
2019-02-19T21:46:34.610Z,101946.30
2019-02-19T21:49:04.058Z,101950.70
2019-02-19T21:51:33.439Z,101958.59
2019-02-19T21:54:02.767Z,101949.59
2019-02-19T21:56:32.121Z,101950.04
2019-02-19T21:59:01.554Z,101950.41
2019-02-19T22:01:30.989Z,101959.47
2019-02-19T22:04:00.325Z,101954.45
2019-02-19T22:06:29.706Z,101954.20
2019-02-19T22:08:59.050Z,101951.74
2019-02-19T22:11:28.377Z,101952.73
2019-02-19T22:13:57.732Z,101957.89
2019-02-19T22:16:27.087Z,101956.82
2019-02-19T22:18:56.387Z,101957.21
2019-02-19T22:21:44.817Z,101956.82
2019-02-19T22:24:14.186Z,101957.46
2019-02-19T22:26:43.513Z,101959.16
2019-02-19T22:29:12.838Z,101964.66
2019-02-19T22:31:42.173Z,101959.88
2019-02-19T22:34:11.506Z,101961.72
2019-02-19T22:36:40.852Z,101958.08
2019-02-19T22:39:10.266Z,101956.09
2019-02-19T22:41:39.600Z,101952.05
2019-02-19T22:44:08.951Z,101958.73
2019-02-19T22:46:38.263Z,101960.53
2019-02-19T22:49:07.566Z,101960.52
2019-02-19T22:51:36.901Z,101958.89
2019-02-19T22:54:11.152Z,101958.81
2019-02-19T22:56:42.372Z,101960.52
2019-02-19T22:59:11.672Z,101961.23
2019-02-19T23:01:46.238Z,101959.30
2019-02-19T23:04:15.734Z,101964.84
2019-02-19T23:06:45.061Z,101964.75
2019-02-19T23:09:14.841Z,101962.53
2019-02-19T23:11:44.142Z,101961.26
2019-02-19T23:14:13.423Z,101971.66
2019-02-19T23:16:42.719Z,101969.25
2019-02-19T23:19:12.104Z,101973.12
2019-02-19T23:21:41.417Z,101977.35
2019-02-19T23:24:10.749Z,101977.84
2019-02-19T23:26:40.047Z,101985.48
2019-02-19T23:29:09.373Z,101988.17
2019-02-19T23:31:38.684Z,101981.34
2019-02-19T23:34:08.057Z,101980.95
2019-02-19T23:36:59.210Z,101979.92
2019-02-19T23:39:28.547Z,101976.34
2019-02-19T23:41:57.930Z,101983.86
2019-02-19T23:44:27.240Z,101966.64
2019-02-19T23:46:56.564Z,101968.91
2019-02-19T23:49:25.853Z,101959.89
2019-02-19T23:51:58.176Z,101969.70
2019-02-19T23:54:27.652Z,101977.34
2019-02-19T23:56:57.143Z,101973.48
2019-02-19T23:59:26.579Z,101974.72
